Pagrindinis puslapis
METAR-TAF:

METAR-TAF

Oro uostai :

Afonsos

Rio de Žaneiras, Rio de Janeiro, Brazilija

platuma: 22-52S, ilguma: 043-22W, Aukštis: 34 m

Dabartinis oras

Ataskaita buvo paskelbta 51 minutes, ne 21:00 UTC
Vėjas 7 kt iš Pietų/Pietryčių
Temperatūra 33°C
Drėgmė 44%
Slėgis 1013 hPa
Matomumas 10 km arba daugiau
nėra debesų žemiau 1500 m ir nėra kamuolinių lietaus debesų

METAR: SBAF 152100Z 16007KT CAVOK 33/19 Q1013

Laikas: 18:51 (21:51 UTC)

Prognozė

Ataskaita buvo paskelbta 6 valandos ir 36 minutes, ne 15:15 UTC
Prognozė galioja nuo 15 metu 18 UTC su 16 metu 06 UTC
Vėjas 7 kt iš Rytų/Šiaurės Rytų
Matomumas 10 km arba daugiau
Mažai debesys ne aukštis 3500 ft

TAF: SBAF 151515Z 1518/1606 07007KT 9999 FEW035 TX34/1518Z TN22/1606Z RMK PDW

Orai ataskaitas ir orų prognozės (METAR, TAF).

turimą stotys yra geltonos ir raudonos taškus žemėlapyje.

Perkelti pele per norėdami pamatyti stoties vardą.

Tada spustelėkite, norėdami matyti oro stebėjimo ir prognozės.

Norėdami pakeisti žemėlapį: spustelėkite ant žalios mygtukų su juodo kryžiaus žemyn,; žalią mygtuką su brūkšneliu, jei norite nutolinti; arba žalių rodyklių gretimoms žemėlapius.


METAR-TAF: